PWSweather.com
Personal Weather Stations
Station Observations
SHAHALMS1
Eftra, Falkenberg, HA

EftraFalkenberg, HA

Lat: 56.85, Lon: 12.65

Elevation: 140

Station Type:

http://hem.passagen.se/risarp101

High Low Average
Temperature 67.5°F19.7°C 57.2°F14.0°C 61.8°F16.6°C
Dew Point 55.8°F13.2°C 48.0°F8.9°C 51.2°F10.7°C
Winds 10.5 mph 16.9 kmh Calm Calm 6.0 mph WSW9.7 kmh WSW
Wind Gusts 29.7 mph47.8 kmh -- 13.0 mph20.9 kmh
Humidity 90% 53% 69%
Pressure 29.86 in1011.2 mb 29.77 in1008.1 mb -
Precipitation 0.03 in0.8 mm - -
Hour Temp Dew Point Humidity Winds Wind Gusts Pressure Precip Precip Rate Daily Precip Total
12:00 AM 58.1°F14.5°C 55.2°F12.9°C 90% 9.5 mph W15.3 kmh W 26.8 mph43.1 kmh 29.77 in1008.1 mb 0.00 in0.0 mm 0.00 in0.0 mm 0.00 in0.0 mm
12:15 AM 58.5°F14.7°C 55.5°F13.1°C 90% 7.7 mph WNW12.4 kmh WNW 20.8 mph33.5 kmh 29.77 in1008.1 mb 0.00 in0.0 mm 0.00 in0.0 mm 0.00 in0.0 mm
12:30 AM 59.0°F15.0°C 55.8°F13.2°C 89% 7.8 mph WNW12.6 kmh WNW 16.8 mph27.0 kmh 29.77 in1008.1 mb 0.00 in0.0 mm 0.00 in0.0 mm 0.00 in0.0 mm
12:45 AM 59.0°F15.0°C 55.4°F13.0°C 88% 5.8 mph WNW9.3 kmh WNW 12.2 mph19.6 kmh 29.77 in1008.1 mb 0.00 in0.0 mm 0.00 in0.0 mm 0.00 in0.0 mm
01:00 AM 59.4°F15.2°C 55.5°F13.1°C 87% 7.6 mph W12.2 kmh W 17.5 mph28.2 kmh 29.77 in1008.1 mb 0.00 in0.0 mm 0.00 in0.0 mm 0.00 in0.0 mm
01:15 AM 59.5°F15.3°C 55.0°F12.8°C 85% 9.0 mph WNW14.5 kmh WNW 16.8 mph27.0 kmh 29.77 in1008.1 mb 0.00 in0.0 mm 0.00 in0.0 mm 0.00 in0.0 mm
01:30 AM 59.7°F15.4°C 54.9°F12.7°C 84% 8.3 mph W13.4 kmh W 20.0 mph32.2 kmh 29.77 in1008.1 mb 0.00 in0.0 mm 0.00 in0.0 mm 0.00 in0.0 mm
01:45 AM 59.7°F15.4°C 54.5°F12.5°C 83% 8.9 mph W14.3 kmh W 20.4 mph32.8 kmh 29.77 in1008.1 mb 0.00 in0.0 mm 0.00 in0.0 mm 0.00 in0.0 mm
02:00 AM 59.5°F15.3°C 53.7°F12.1°C 81% 9.3 mph W15.0 kmh W 16.8 mph27.0 kmh 29.77 in1008.1 mb 0.00 in0.0 mm 0.00 in0.0 mm 0.00 in0.0 mm
02:15 AM 59.2°F15.1°C 53.0°F11.7°C 80% 9.2 mph W14.8 kmh W 22.9 mph36.9 kmh 29.77 in1008.1 mb 0.00 in0.0 mm 0.00 in0.0 mm 0.00 in0.0 mm
02:30 AM 59.0°F15.0°C 52.8°F11.6°C 80% 9.3 mph W15.0 kmh W 19.3 mph31.1 kmh 29.77 in1008.1 mb 0.00 in0.0 mm 0.00 in0.0 mm 0.00 in0.0 mm
02:45 AM 58.8°F14.9°C 52.7°F11.5°C 80% 8.6 mph W13.8 kmh W 15.4 mph24.8 kmh 29.80 in1009.1 mb 0.00 in0.0 mm 0.00 in0.0 mm 0.00 in0.0 mm
03:00 AM 58.5°F14.7°C 52.0°F11.1°C 79% 8.6 mph WNW13.8 kmh WNW 16.5 mph26.6 kmh 29.80 in1009.1 mb 0.00 in0.0 mm 0.00 in0.0 mm 0.00 in0.0 mm
03:15 AM 58.5°F14.7°C 52.0°F11.1°C 79% 7.7 mph W12.4 kmh W 15.4 mph24.8 kmh 29.80 in1009.1 mb 0.00 in0.0 mm 0.00 in0.0 mm 0.00 in0.0 mm
03:30 AM 58.5°F14.7°C 50.9°F10.5°C 76% 9.9 mph W15.9 kmh W 20.8 mph33.5 kmh 29.80 in1009.1 mb 0.00 in0.0 mm 0.00 in0.0 mm 0.00 in0.0 mm
03:45 AM 58.1°F14.5°C 50.2°F10.1°C 75% 8.0 mph W12.9 kmh W 16.5 mph26.6 kmh 29.80 in1009.1 mb 0.00 in0.0 mm 0.00 in0.0 mm 0.00 in0.0 mm
04:00 AM 57.9°F14.4°C 48.9°F9.4°C 72% 8.2 mph W13.2 kmh W 22.5 mph36.2 kmh 29.77 in1008.1 mb 0.00 in0.0 mm 0.00 in0.0 mm 0.00 in0.0 mm
04:15 AM 57.9°F14.4°C 48.6°F9.2°C 71% 8.6 mph W13.8 kmh W 21.8 mph35.1 kmh 29.80 in1009.1 mb 0.00 in0.0 mm 0.00 in0.0 mm 0.00 in0.0 mm
04:30 AM 58.1°F14.5°C 49.1°F9.5°C 72% 7.7 mph W12.4 kmh W 20.8 mph33.5 kmh 29.80 in1009.1 mb 0.00 in0.0 mm 0.00 in0.0 mm 0.00 in0.0 mm
04:45 AM 58.1°F14.5°C 48.7°F9.3°C 71% 9.4 mph W15.1 kmh W 17.5 mph28.2 kmh 29.80 in1009.1 mb 0.00 in0.0 mm 0.00 in0.0 mm 0.00 in0.0 mm
05:00 AM 58.5°F14.7°C 48.7°F9.3°C 70% 8.2 mph WNW13.2 kmh WNW 19.7 mph31.7 kmh 29.80 in1009.1 mb 0.00 in0.0 mm 0.00 in0.0 mm 0.00 in0.0 mm
05:15 AM 58.5°F14.7°C 48.7°F9.3°C 70% 7.1 mph WNW11.4 kmh WNW 15.4 mph24.8 kmh 29.80 in1009.1 mb 0.00 in0.0 mm 0.00 in0.0 mm 0.00 in0.0 mm
05:30 AM 59.0°F15.0°C 48.8°F9.3°C 69% 8.4 mph W13.5 kmh W 20.4 mph32.8 kmh 29.80 in1009.1 mb 0.00 in0.0 mm 0.00 in0.0 mm 0.00 in0.0 mm
05:45 AM 59.4°F15.2°C 48.8°F9.3°C 68% 9.3 mph WNW15.0 kmh WNW 21.1 mph34.0 kmh 29.80 in1009.1 mb 0.00 in0.0 mm 0.00 in0.0 mm 0.00 in0.0 mm
06:00 AM 59.4°F15.2°C 48.0°F8.9°C 66% 8.7 mph W14.0 kmh W 26.5 mph42.6 kmh 29.80 in1009.1 mb 0.00 in0.0 mm 0.00 in0.0 mm 0.00 in0.0 mm
06:15 AM 59.9°F15.5°C 48.1°F8.9°C 65% 9.5 mph W15.3 kmh W 29.7 mph47.8 kmh 29.80 in1009.1 mb 0.00 in0.0 mm 0.00 in0.0 mm 0.00 in0.0 mm
06:30 AM 60.6°F15.9°C 49.2°F9.6°C 66% 10.0 mph W16.1 kmh W 21.1 mph34.0 kmh 29.80 in1009.1 mb 0.00 in0.0 mm 0.00 in0.0 mm 0.00 in0.0 mm
06:45 AM 61.0°F16.1°C 48.7°F9.3°C 64% 10.3 mph W16.6 kmh W 26.8 mph43.1 kmh 29.80 in1009.1 mb 0.00 in0.0 mm 0.00 in0.0 mm 0.00 in0.0 mm
07:00 AM 61.5°F16.4°C 49.2°F9.6°C 64% 8.7 mph WNW14.0 kmh WNW 20.0 mph32.2 kmh 29.80 in1009.1 mb 0.00 in0.0 mm 0.00 in0.0 mm 0.00 in0.0 mm
07:15 AM 61.9°F16.6°C 49.1°F9.5°C 63% 8.5 mph WNW13.7 kmh WNW 23.3 mph37.5 kmh 29.77 in1008.1 mb 0.00 in0.0 mm 0.00 in0.0 mm 0.00 in0.0 mm
07:30 AM 62.1°F16.7°C 49.3°F9.6°C 63% 8.5 mph W13.7 kmh W 17.5 mph28.2 kmh 29.80 in1009.1 mb 0.00 in0.0 mm 0.00 in0.0 mm 0.00 in0.0 mm
07:45 AM 62.2°F16.8°C 49.5°F9.7°C 63% 9.3 mph W15.0 kmh W 20.0 mph32.2 kmh 29.80 in1009.1 mb 0.00 in0.0 mm 0.00 in0.0 mm 0.00 in0.0 mm
08:00 AM 62.2°F16.8°C 49.5°F9.7°C 63% 8.3 mph WNW13.4 kmh WNW 20.0 mph32.2 kmh 29.80 in1009.1 mb 0.00 in0.0 mm 0.00 in0.0 mm 0.00 in0.0 mm
08:15 AM 62.2°F16.8°C 49.5°F9.7°C 63% 8.4 mph WNW13.5 kmh WNW 20.4 mph32.8 kmh 29.80 in1009.1 mb 0.00 in0.0 mm 0.00 in0.0 mm 0.00 in0.0 mm
08:30 AM 62.6°F17.0°C 49.0°F9.4°C 61% 7.3 mph WNW11.7 kmh WNW 16.1 mph25.9 kmh 29.83 in1010.2 mb 0.00 in0.0 mm 0.00 in0.0 mm 0.00 in0.0 mm
08:45 AM 63.1°F17.3°C 49.0°F9.4°C 60% 9.3 mph WNW15.0 kmh WNW 19.7 mph31.7 kmh 29.80 in1009.1 mb 0.00 in0.0 mm 0.00 in0.0 mm 0.00 in0.0 mm
09:00 AM 63.3°F17.4°C 49.2°F9.6°C 60% 7.7 mph W12.4 kmh W 17.2 mph27.7 kmh 29.80 in1009.1 mb 0.00 in0.0 mm 0.00 in0.0 mm 0.00 in0.0 mm
09:15 AM 64.0°F17.8°C 49.9°F9.9°C 60% 8.4 mph W13.5 kmh W 17.2 mph27.7 kmh 29.80 in1009.1 mb 0.00 in0.0 mm 0.00 in0.0 mm 0.00 in0.0 mm
09:30 AM 64.6°F18.1°C 49.9°F9.9°C 59% 8.8 mph WNW14.2 kmh WNW 22.5 mph36.2 kmh 29.83 in1010.2 mb 0.00 in0.0 mm 0.00 in0.0 mm 0.00 in0.0 mm
09:45 AM 64.2°F17.9°C 50.0°F10.0°C 60% 6.7 mph W10.8 kmh W 16.5 mph26.6 kmh 29.83 in1010.2 mb 0.00 in0.0 mm 0.00 in0.0 mm 0.00 in0.0 mm
10:00 AM 64.8°F18.2°C 50.5°F10.3°C 60% 7.5 mph W12.1 kmh W 20.0 mph32.2 kmh 29.83 in1010.2 mb 0.00 in0.0 mm 0.00 in0.0 mm 0.00 in0.0 mm
10:15 AM 65.5°F18.6°C 50.8°F10.4°C 59% 8.1 mph W13.0 kmh W 24.3 mph39.1 kmh 29.83 in1010.2 mb 0.00 in0.0 mm 0.00 in0.0 mm 0.00 in0.0 mm
10:30 AM 65.3°F18.5°C 50.6°F10.3°C 59% 6.9 mph WNW11.1 kmh WNW 21.1 mph34.0 kmh 29.83 in1010.2 mb 0.00 in0.0 mm 0.00 in0.0 mm 0.00 in0.0 mm
10:45 AM 64.8°F18.2°C 50.1°F10.1°C 59% 7.3 mph W11.7 kmh W 17.2 mph27.7 kmh 29.83 in1010.2 mb 0.00 in0.0 mm 0.00 in0.0 mm 0.00 in0.0 mm
11:00 AM 65.1°F18.4°C 50.4°F10.2°C 59% 6.9 mph WNW11.1 kmh WNW 23.6 mph38.0 kmh 29.83 in1010.2 mb 0.00 in0.0 mm 0.00 in0.0 mm 0.00 in0.0 mm
11:15 AM 65.3°F18.5°C 50.6°F10.3°C 59% 7.3 mph W11.7 kmh W 18.3 mph29.5 kmh 29.83 in1010.2 mb 0.00 in0.0 mm 0.00 in0.0 mm 0.00 in0.0 mm
11:30 AM 66.0°F18.9°C 51.3°F10.7°C 59% 6.8 mph WNW10.9 kmh WNW 19.3 mph31.1 kmh 29.83 in1010.2 mb 0.00 in0.0 mm 0.00 in0.0 mm 0.00 in0.0 mm
11:45 AM 66.2°F19.0°C 51.0°F10.6°C 58% 6.8 mph W10.9 kmh W 12.2 mph19.6 kmh 29.83 in1010.2 mb 0.00 in0.0 mm 0.00 in0.0 mm 0.00 in0.0 mm
12:00 PM 65.7°F18.7°C 50.5°F10.3°C 58% 7.9 mph WNW12.7 kmh WNW 17.9 mph28.8 kmh 29.83 in1010.2 mb 0.00 in0.0 mm 0.00 in0.0 mm 0.00 in0.0 mm
12:15 PM 67.3°F19.6°C 51.5°F10.8°C 57% 7.7 mph WNW12.4 kmh WNW 14.0 mph22.5 kmh 29.83 in1010.2 mb 0.00 in0.0 mm 0.00 in0.0 mm 0.00 in0.0 mm
12:30 PM 67.1°F19.5°C 50.4°F10.2°C 55% 7.1 mph WNW11.4 kmh WNW 17.9 mph28.8 kmh 29.86 in1011.2 mb 0.00 in0.0 mm 0.00 in0.0 mm 0.00 in0.0 mm
12:45 PM 67.1°F19.5°C 49.4°F9.7°C 53% 7.3 mph W11.7 kmh W 22.9 mph36.9 kmh 29.83 in1010.2 mb 0.00 in0.0 mm 0.00 in0.0 mm 0.00 in0.0 mm
01:00 PM 66.2°F19.0°C 49.6°F9.8°C 55% 8.6 mph W13.8 kmh W 14.7 mph23.7 kmh 29.83 in1010.2 mb 0.00 in0.0 mm 0.00 in0.0 mm 0.00 in0.0 mm
01:15 PM 66.4°F19.1°C 50.2°F10.1°C 56% 5.0 mph W8.0 kmh W 10.4 mph16.7 kmh 29.83 in1010.2 mb 0.00 in0.0 mm 0.00 in0.0 mm 0.00 in0.0 mm
01:30 PM 66.4°F19.1°C 49.7°F9.8°C 55% 4.9 mph W7.9 kmh W 6.1 mph9.8 kmh 29.83 in1010.2 mb 0.00 in0.0 mm 0.00 in0.0 mm 0.00 in0.0 mm
01:45 PM 64.8°F18.2°C 49.2°F9.6°C 57% 5.6 mph W9.0 kmh W 8.9 mph14.3 kmh 29.83 in1010.2 mb 0.00 in0.0 mm 0.00 in0.0 mm 0.00 in0.0 mm
02:00 PM 65.7°F18.7°C 50.9°F10.5°C 59% 6.0 mph W9.7 kmh W 8.9 mph14.3 kmh 29.83 in1010.2 mb 0.00 in0.0 mm 0.00 in0.0 mm 0.00 in0.0 mm
02:15 PM 67.1°F19.5°C 51.8°F11.0°C 58% 6.6 mph W10.6 kmh W 11.8 mph19.0 kmh 29.83 in1010.2 mb 0.00 in0.0 mm 0.00 in0.0 mm 0.00 in0.0 mm
02:30 PM 67.5°F19.7°C 51.2°F10.7°C 56% 7.0 mph W11.3 kmh W 16.1 mph25.9 kmh 29.83 in1010.2 mb 0.00 in0.0 mm 0.00 in0.0 mm 0.00 in0.0 mm
04:02 PM 67.3°F19.6°C 51.0°F10.6°C 56% 8.1 mph W13.0 kmh W 10.0 mph16.1 kmh 29.83 in1010.2 mb 0.00 in0.0 mm 0.00 in0.0 mm 0.00 in0.0 mm
04:12 PM 67.1°F19.5°C 50.9°F10.5°C 56% 10.5 mph NW16.9 kmh NW 12.9 mph20.8 kmh 29.83 in1010.2 mb 0.00 in0.0 mm 0.00 in0.0 mm 0.00 in0.0 mm
04:22 PM 67.1°F19.5°C 50.4°F10.2°C 55% 2.6 mph W4.2 kmh W 3.2 mph5.1 kmh 29.83 in1010.2 mb 0.00 in0.0 mm 0.00 in0.0 mm 0.00 in0.0 mm
04:32 PM 67.5°F19.7°C 51.2°F10.7°C 56% 4.7 mph W7.6 kmh W 5.7 mph9.2 kmh 29.83 in1010.2 mb 0.00 in0.0 mm 0.00 in0.0 mm 0.00 in0.0 mm
04:42 PM 66.7°F19.3°C 50.1°F10.1°C 55% 6.1 mph W9.8 kmh W 7.5 mph12.1 kmh 29.83 in1010.2 mb 0.00 in0.0 mm 0.00 in0.0 mm 0.00 in0.0 mm
04:52 PM 66.4°F19.1°C 50.2°F10.1°C 56% 6.5 mph W10.5 kmh W 8.6 mph13.8 kmh 29.83 in1010.2 mb 0.00 in0.0 mm 0.00 in0.0 mm 0.00 in0.0 mm
05:02 PM 66.0°F18.9°C 50.3°F10.2°C 57% 7.0 mph W11.3 kmh W 8.6 mph13.8 kmh 29.83 in1010.2 mb 0.00 in0.0 mm 0.00 in0.0 mm 0.00 in0.0 mm
05:12 PM 65.7°F18.7°C 50.5°F10.3°C 58% 5.2 mph W8.4 kmh W 6.4 mph10.3 kmh 29.83 in1010.2 mb 0.00 in0.0 mm 0.00 in0.0 mm 0.00 in0.0 mm
05:22 PM 65.3°F18.5°C 50.1°F10.1°C 58% 5.2 mph W8.4 kmh W 6.4 mph10.3 kmh 29.83 in1010.2 mb 0.00 in0.0 mm 0.00 in0.0 mm 0.00 in0.0 mm
05:32 PM 64.9°F18.3°C 49.8°F9.9°C 58% 4.1 mph W6.6 kmh W 5.0 mph8.0 kmh 29.83 in1010.2 mb 0.00 in0.0 mm 0.00 in0.0 mm 0.00 in0.0 mm
05:42 PM 64.8°F18.2°C 49.6°F9.8°C 58% 4.1 mph W6.6 kmh W 5.0 mph8.0 kmh 29.83 in1010.2 mb 0.00 in0.0 mm 0.00 in0.0 mm 0.00 in0.0 mm
05:52 PM 64.4°F18.0°C 49.8°F9.9°C 59% 4.1 mph W6.6 kmh W 5.0 mph8.0 kmh 29.83 in1010.2 mb 0.00 in0.0 mm 0.00 in0.0 mm 0.00 in0.0 mm
06:02 PM 64.2°F17.9°C 50.0°F10.0°C 60% 4.1 mph W6.6 kmh W 5.0 mph8.0 kmh 29.83 in1010.2 mb 0.00 in0.0 mm 0.00 in0.0 mm 0.00 in0.0 mm
06:12 PM 63.9°F17.7°C 50.1°F10.1°C 61% 4.1 mph W6.6 kmh W 5.0 mph8.0 kmh 29.83 in1010.2 mb 0.00 in0.0 mm 0.00 in0.0 mm 0.00 in0.0 mm
06:22 PM 63.5°F17.5°C 50.7°F10.4°C 63% 4.1 mph W6.6 kmh W 5.0 mph8.0 kmh 29.83 in1010.2 mb 0.00 in0.0 mm 0.00 in0.0 mm 0.00 in0.0 mm
06:32 PM 63.3°F17.4°C 50.5°F10.3°C 63% 4.1 mph W6.6 kmh W 5.0 mph8.0 kmh 29.83 in1010.2 mb 0.00 in0.0 mm 0.00 in0.0 mm 0.00 in0.0 mm
06:42 PM 63.0°F17.2°C 50.6°F10.3°C 64% 3.2 mph NW5.1 kmh NW 3.9 mph6.3 kmh 29.83 in1010.2 mb 0.00 in0.0 mm 0.00 in0.0 mm 0.00 in0.0 mm
06:52 PM 62.8°F17.1°C 50.8°F10.4°C 65% 2.0 mph W3.2 kmh W 2.5 mph4.0 kmh 29.83 in1010.2 mb 0.00 in0.0 mm 0.00 in0.0 mm 0.00 in0.0 mm
07:02 PM 62.2°F16.8°C 51.5°F10.8°C 68% 3.2 mph NE5.1 kmh NE 3.9 mph6.3 kmh 29.83 in1010.2 mb 0.00 in0.0 mm 0.00 in0.0 mm 0.00 in0.0 mm
07:12 PM 61.7°F16.5°C 51.4°F10.8°C 69% 4.9 mph W7.9 kmh W 6.1 mph9.8 kmh 29.83 in1010.2 mb 0.00 in0.0 mm 0.00 in0.0 mm 0.00 in0.0 mm
07:22 PM 61.5°F16.4°C 52.0°F11.1°C 71% 4.9 mph W7.9 kmh W 6.1 mph9.8 kmh 29.83 in1010.2 mb 0.00 in0.0 mm 0.00 in0.0 mm 0.00 in0.0 mm
07:32 PM 61.2°F16.2°C 52.4°F11.3°C 73% 8.1 mph W13.0 kmh W 10.0 mph16.1 kmh 29.80 in1009.1 mb 0.00 in0.0 mm 0.00 in0.0 mm 0.00 in0.0 mm
07:42 PM 60.8°F16.0°C 52.1°F11.2°C 73% 4.4 mph W7.1 kmh W 5.4 mph8.7 kmh 29.80 in1009.1 mb 0.00 in0.0 mm 0.00 in0.0 mm 0.00 in0.0 mm
07:52 PM 60.4°F15.8°C 52.1°F11.2°C 74% 4.5 mph W7.2 kmh W 5.7 mph9.2 kmh 29.80 in1009.1 mb 0.00 in0.0 mm 0.00 in0.0 mm 0.00 in0.0 mm
08:02 PM 60.1°F15.6°C 52.1°F11.2°C 75% 3.5 mph S5.6 kmh S 4.3 mph6.9 kmh 29.80 in1009.1 mb 0.00 in0.0 mm 0.00 in0.0 mm 0.00 in0.0 mm
08:12 PM 60.1°F15.6°C 52.5°F11.4°C 76% 3.5 mph S5.6 kmh S 4.3 mph6.9 kmh 29.80 in1009.1 mb 0.00 in0.0 mm 0.00 in0.0 mm 0.00 in0.0 mm
08:15 PM 58.1°F14.5°C 51.6°F10.9°C 79% 0.4 mph WSW0.6 kmh WSW 5.7 mph9.2 kmh 29.83 in1010.2 mb 0.00 in0.0 mm 0.00 in0.0 mm 0.00 in0.0 mm
08:16 PM 59.5°F15.3°C 52.3°F11.3°C 77% 4.7 mph W7.6 kmh W 5.7 mph9.2 kmh 29.80 in1009.1 mb 0.00 in0.0 mm 0.00 in0.0 mm 0.00 in0.0 mm
08:22 PM 59.9°F15.5°C 52.7°F11.5°C 77% 2.0 mph W3.2 kmh W 2.5 mph4.0 kmh 29.80 in1009.1 mb 0.00 in0.0 mm 0.00 in0.0 mm 0.00 in0.0 mm
08:30 PM 57.9°F14.4°C 51.8°F11.0°C 80% 0.4 mph W0.6 kmh W 5.7 mph9.2 kmh 29.80 in1009.1 mb 0.00 in0.0 mm 0.00 in0.0 mm 0.00 in0.0 mm
08:45 PM 57.9°F14.4°C 52.1°F11.2°C 81% 0.1 mph W0.2 kmh W 1.8 mph2.9 kmh 29.80 in1009.1 mb 0.00 in0.0 mm 0.00 in0.0 mm 0.00 in0.0 mm
09:00 PM 57.9°F14.4°C 52.5°F11.4°C 82% 0.2 mph S0.3 kmh S 1.8 mph2.9 kmh 29.80 in1009.1 mb 0.00 in0.0 mm 0.00 in0.0 mm 0.00 in0.0 mm
09:15 PM 58.1°F14.5°C 53.0°F11.7°C 83% Calm Calm -- 29.80 in1009.1 mb 0.00 in0.0 mm 0.00 in0.0 mm 0.00 in0.0 mm
09:30 PM 58.1°F14.5°C 53.0°F11.7°C 83% Calm Calm -- 29.80 in1009.1 mb 0.00 in0.0 mm 0.00 in0.0 mm 0.00 in0.0 mm
09:45 PM 58.1°F14.5°C 53.3°F11.8°C 84% Calm Calm -- 29.80 in1009.1 mb 0.00 in0.0 mm 0.00 in0.0 mm 0.00 in0.0 mm
10:00 PM 57.9°F14.4°C 53.1°F11.7°C 84% Calm Calm -- 29.77 in1008.1 mb 0.00 in0.0 mm 0.00 in0.0 mm 0.00 in0.0 mm
10:15 PM 57.9°F14.4°C 53.1°F11.7°C 84% Calm Calm -- 29.80 in1009.1 mb 0.00 in0.0 mm 0.00 in0.0 mm 0.00 in0.0 mm
10:30 PM 57.9°F14.4°C 53.4°F11.9°C 85% 0.1 mph E0.2 kmh E 4.3 mph6.9 kmh 29.80 in1009.1 mb 0.00 in0.0 mm 0.00 in0.0 mm 0.00 in0.0 mm
10:45 PM 57.7°F14.3°C 53.6°F12.0°C 86% Calm Calm -- 29.77 in1008.1 mb 0.04 in1.0 mm 0.16 in4.1 mm 0.03 in0.8 mm
11:00 PM 57.7°F14.3°C 53.6°F12.0°C 86% Calm Calm -- 29.80 in1009.1 mb 0.04 in1.0 mm 0.00 in0.0 mm 0.04 in1.0 mm
11:15 PM 57.6°F14.2°C 53.7°F12.1°C 87% Calm Calm -- 29.77 in1008.1 mb 0.04 in1.0 mm 0.00 in0.0 mm 0.04 in1.0 mm
11:30 PM 57.4°F14.1°C 53.5°F11.9°C 87% 2.8 mph SE4.5 kmh SE 6.8 mph10.9 kmh 29.77 in1008.1 mb 0.04 in1.0 mm 0.00 in0.0 mm 0.04 in1.0 mm
11:45 PM 57.2°F14.0°C 53.4°F11.9°C 87% 1.6 mph SE2.6 kmh SE 4.7 mph7.6 kmh 29.80 in1009.1 mb 0.00 in0.0 mm 0.00 in0.0 mm 0.04 in1.0 mm